createdAt,value
2023-03-10T00:01:22.281Z,12.18
2023-03-10T00:03:51.050Z,11.93
2023-03-10T00:06:21.453Z,9.15
2023-03-10T00:08:50.156Z,10.88
2023-03-10T00:11:20.680Z,12.25
2023-03-10T00:13:50.115Z,9.35
2023-03-10T00:16:20.739Z,11.90
2023-03-10T00:18:49.184Z,11.52
2023-03-10T00:21:19.009Z,6.80
2023-03-10T00:23:47.125Z,8.90
2023-03-10T00:26:19.534Z,9.52
2023-03-10T00:28:47.905Z,11.65
2023-03-10T00:31:19.008Z,9.90
2023-03-10T00:33:47.574Z,9.82
2023-03-10T00:36:18.188Z,9.82
2023-03-10T00:38:50.629Z,8.38
2023-03-10T00:41:20.799Z,9.70
2023-03-10T00:43:49.957Z,11.05
2023-03-10T00:46:20.055Z,8.55
2023-03-10T00:48:48.171Z,8.07
2023-03-10T00:51:16.519Z,8.90
2023-03-10T00:53:44.639Z,8.80
2023-03-10T00:56:14.697Z,11.52
2023-03-10T00:58:43.282Z,6.95
2023-03-10T01:01:15.119Z,10.10
2023-03-10T01:03:45.044Z,9.13
2023-03-10T01:06:15.710Z,7.22
2023-03-10T01:08:46.749Z,10.73
2023-03-10T01:11:18.375Z,9.70
2023-03-10T01:13:47.109Z,11.95
2023-03-10T01:16:15.122Z,5.93
2023-03-10T01:18:47.318Z,7.25
2023-03-10T01:21:19.045Z,9.65
2023-03-10T01:23:47.025Z,6.50
2023-03-10T01:26:18.686Z,7.47
2023-03-10T01:28:48.037Z,8.60
2023-03-10T01:31:17.294Z,8.80
2023-03-10T01:33:47.433Z,8.98
2023-03-10T01:36:18.277Z,8.55
2023-03-10T01:38:48.928Z,11.10
2023-03-10T01:41:18.309Z,8.73
2023-03-10T01:43:52.015Z,9.07
2023-03-10T01:46:45.542Z,9.73
2023-03-10T01:49:26.951Z,6.82
2023-03-10T01:52:01.141Z,5.82
2023-03-10T01:54:34.621Z,7.30
2023-03-10T01:57:02.821Z,10.27
2023-03-10T01:59:31.063Z,9.38
2023-03-10T02:02:01.233Z,7.50
2023-03-10T02:04:36.361Z,5.32
2023-03-10T02:07:07.038Z,7.97
2023-03-10T02:09:38.363Z,6.70
2023-03-10T02:12:07.286Z,8.18
2023-03-10T02:14:36.577Z,8.50
2023-03-10T02:17:06.230Z,4.75
2023-03-10T02:19:50.571Z,6.18
2023-03-10T02:22:18.561Z,5.57
2023-03-10T02:24:52.298Z,6.85
2023-03-10T02:27:31.199Z,11.38
2023-03-10T02:30:05.669Z,6.75
2023-03-10T02:32:40.821Z,8.88
2023-03-10T02:35:10.073Z,8.77
2023-03-10T02:37:45.131Z,7.47
2023-03-10T02:40:40.181Z,8.73
2023-03-10T02:43:19.865Z,8.40
2023-03-10T02:45:52.460Z,8.98
2023-03-10T02:48:28.165Z,5.18
2023-03-10T02:50:58.770Z,8.38
2023-03-10T02:54:05.748Z,5.18
2023-03-10T02:56:35.567Z,6.25
2023-03-10T02:59:06.591Z,5.78
2023-03-10T03:01:36.846Z,6.30
2023-03-10T03:04:07.698Z,5.72
2023-03-10T03:06:35.668Z,8.75
2023-03-10T03:09:03.836Z,5.30
2023-03-10T03:11:32.525Z,6.85
2023-03-10T03:14:00.624Z,5.38
2023-03-10T03:16:32.836Z,5.55
2023-03-10T03:19:05.080Z,7.95
2023-03-10T03:21:33.109Z,4.28
2023-03-10T03:24:05.089Z,4.25
2023-03-10T03:26:33.111Z,3.85
2023-03-10T03:29:12.014Z,5.25
2023-03-10T03:31:42.013Z,6.85
2023-03-10T03:34:15.533Z,4.30
2023-03-10T03:36:44.472Z,4.72
2023-03-10T03:39:17.340Z,6.60
2023-03-10T03:41:49.021Z,6.60
2023-03-10T03:44:17.363Z,3.42
2023-03-10T03:46:46.837Z,3.40
2023-03-10T03:49:16.101Z,5.18
2023-03-10T03:51:44.755Z,4.60
2023-03-10T03:54:12.909Z,5.85
2023-03-10T03:56:46.590Z,5.60
2023-03-10T03:59:16.597Z,4.00
2023-03-10T04:01:46.408Z,3.72
2023-03-10T04:04:16.960Z,3.80
2023-03-10T04:06:44.911Z,3.28
2023-03-10T04:09:13.732Z,4.03
2023-03-10T04:11:46.011Z,3.90
2023-03-10T04:14:14.050Z,4.25
2023-03-10T04:16:46.548Z,4.93
2023-03-10T04:19:14.896Z,4.25
2023-03-10T04:21:49.362Z,3.72
2023-03-10T04:24:17.855Z,5.38
2023-03-10T04:26:46.172Z,4.68
2023-03-10T04:29:17.800Z,3.63
2023-03-10T04:32:04.062Z,3.63
2023-03-10T04:34:34.324Z,4.45
2023-03-10T04:37:03.044Z,3.63
2023-03-10T04:39:34.474Z,4.53
2023-03-10T04:42:02.454Z,3.22
2023-03-10T04:44:32.721Z,4.30
2023-03-10T04:47:05.080Z,4.65
2023-03-10T04:49:33.322Z,4.32
2023-03-10T04:52:02.040Z,3.88
2023-03-10T04:54:30.480Z,5.60
2023-03-10T04:57:01.422Z,3.50
2023-03-10T04:59:29.551Z,6.32
2023-03-10T05:01:57.553Z,5.55
2023-03-10T05:04:26.858Z,5.55
2023-03-10T05:06:56.382Z,4.57
2023-03-10T05:09:29.141Z,4.82
2023-03-10T05:11:59.067Z,6.20
2023-03-10T05:16:59.102Z,4.78
2023-03-10T05:19:29.225Z,6.50
2023-03-10T05:21:59.621Z,4.60
2023-03-10T05:24:28.391Z,6.50
2023-03-10T05:26:56.310Z,6.07
2023-03-10T05:29:25.817Z,5.20
2023-03-10T05:31:59.102Z,7.30
2023-03-10T05:34:33.673Z,5.43
2023-03-10T05:37:04.220Z,5.00
2023-03-10T05:39:32.367Z,4.60
2023-03-10T05:42:03.649Z,3.92
2023-03-10T05:44:37.726Z,4.35
2023-03-10T05:47:07.855Z,5.43
2023-03-10T05:49:38.862Z,4.40
2023-03-10T05:52:08.315Z,6.22
2023-03-10T05:54:37.951Z,6.13
2023-03-10T05:57:06.867Z,5.60
2023-03-10T05:59:34.803Z,7.10
2023-03-10T06:02:02.817Z,5.45
2023-03-10T06:04:33.151Z,4.78
2023-03-10T06:07:03.249Z,3.58
2023-03-10T06:09:33.082Z,7.15
2023-03-10T06:12:04.019Z,5.00
2023-03-10T06:14:31.921Z,3.92
2023-03-10T06:16:59.918Z,4.93
2023-03-10T06:19:27.950Z,3.95
2023-03-10T06:21:56.021Z,4.30
2023-03-10T06:24:25.318Z,7.05
2023-03-10T06:26:55.815Z,2.88
2023-03-10T06:29:31.041Z,7.80
2023-03-10T06:32:01.801Z,3.85
2023-03-10T06:34:30.913Z,5.53
2023-03-10T06:36:58.860Z,4.25
2023-03-10T06:39:29.209Z,6.13
2023-03-10T06:41:57.127Z,4.25
2023-03-10T06:44:25.144Z,4.18
2023-03-10T06:46:53.015Z,3.88
2023-03-10T06:49:20.966Z,4.15
2023-03-10T06:51:48.846Z,4.75
2023-03-10T06:54:20.982Z,6.68
2023-03-10T06:56:50.485Z,3.50
2023-03-10T06:59:18.630Z,5.60
2023-03-10T07:01:47.162Z,3.65
2023-03-10T07:04:15.998Z,4.15
2023-03-10T07:06:46.266Z,5.07
2023-03-10T07:09:17.009Z,4.75
2023-03-10T07:11:44.880Z,5.60
2023-03-10T07:14:14.228Z,4.22
2023-03-10T07:16:42.304Z,6.47
2023-03-10T07:19:10.289Z,4.78
2023-03-10T07:21:38.386Z,6.45
2023-03-10T07:24:08.760Z,4.90
2023-03-10T07:26:37.280Z,5.38
2023-03-10T07:29:05.345Z,7.38
2023-03-10T07:31:37.884Z,4.80
2023-03-10T07:34:05.956Z,6.00
2023-03-10T07:36:33.966Z,6.10
2023-03-10T07:39:04.034Z,4.78
2023-03-10T07:41:32.066Z,3.90
2023-03-10T07:43:59.980Z,5.68
2023-03-10T07:46:28.045Z,4.63
2023-03-10T07:49:00.324Z,4.32
2023-03-10T07:51:28.508Z,4.70
2023-03-10T07:53:56.427Z,4.18
2023-03-10T07:56:27.123Z,4.70
2023-03-10T07:58:59.755Z,3.92
2023-03-10T08:01:28.350Z,4.40
2023-03-10T08:03:58.321Z,5.95
2023-03-10T08:06:28.386Z,4.13
2023-03-10T08:08:57.563Z,7.03
2023-03-10T08:11:25.742Z,5.28
2023-03-10T08:13:53.951Z,4.30
2023-03-10T08:16:23.356Z,6.93
2023-03-10T08:18:52.135Z,4.45
2023-03-10T08:21:21.675Z,3.80
2023-03-10T08:23:49.750Z,4.57
2023-03-10T08:26:19.315Z,3.95
2023-03-10T08:28:48.194Z,6.93
2023-03-10T08:31:17.767Z,5.68
2023-03-10T08:33:48.019Z,5.80
2023-03-10T08:36:18.261Z,4.93
2023-03-10T08:38:48.703Z,6.97
2023-03-10T08:41:20.220Z,5.30
2023-03-10T08:43:49.547Z,3.88
2023-03-10T08:46:19.013Z,4.78
2023-03-10T08:48:49.237Z,4.15
2023-03-10T08:51:17.869Z,6.25
2023-03-10T08:53:47.683Z,4.72
2023-03-10T08:56:18.600Z,3.38
2023-03-10T08:58:46.922Z,4.78
2023-03-10T09:01:19.056Z,4.75
2023-03-10T09:03:50.523Z,4.93
2023-03-10T09:06:18.862Z,7.63
2023-03-10T09:08:48.261Z,5.75
2023-03-10T09:11:20.100Z,4.72
2023-03-10T09:13:48.180Z,5.30
2023-03-10T09:16:16.655Z,3.70
2023-03-10T09:18:45.033Z,4.28
2023-03-10T09:21:18.712Z,5.18
2023-03-10T09:23:52.729Z,4.38
2023-03-10T09:26:25.641Z,4.80
2023-03-10T09:28:57.444Z,6.70
2023-03-10T09:31:30.796Z,6.20
2023-03-10T09:34:00.889Z,5.57
2023-03-10T09:36:30.149Z,4.10
2023-03-10T09:38:58.768Z,4.28
2023-03-10T09:42:06.532Z,3.63
2023-03-10T09:44:42.802Z,4.13
2023-03-10T09:47:27.667Z,3.85
2023-03-10T09:50:11.318Z,4.68
2023-03-10T09:52:46.036Z,3.33
2023-03-10T09:55:21.936Z,3.80
2023-03-10T09:57:55.095Z,4.53
2023-03-10T10:00:27.873Z,3.40
2023-03-10T10:03:03.475Z,5.22
2023-03-10T10:05:34.975Z,4.85
2023-03-10T10:08:14.075Z,4.38
2023-03-10T10:10:43.352Z,4.82
2023-03-10T10:13:16.510Z,5.05
2023-03-10T10:15:51.253Z,3.47
2023-03-10T10:18:28.667Z,4.35
2023-03-10T10:21:00.912Z,5.18
2023-03-10T10:23:39.381Z,5.78
2023-03-10T10:26:12.766Z,5.95
2023-03-10T10:28:44.933Z,4.35
2023-03-10T10:31:16.618Z,4.72
2023-03-10T10:33:56.804Z,5.47
2023-03-10T10:36:29.228Z,4.68
2023-03-10T10:38:58.852Z,3.22
2023-03-10T10:41:29.349Z,4.88
2023-03-10T10:44:01.165Z,6.05
2023-03-10T10:46:30.775Z,6.30
2023-03-10T10:49:04.729Z,4.35
2023-03-10T10:51:35.978Z,5.63
2023-03-10T10:54:06.468Z,6.43
2023-03-10T10:56:34.996Z,4.63
2023-03-10T10:59:07.497Z,3.47
2023-03-10T11:01:51.259Z,3.35
2023-03-10T11:04:20.081Z,4.15
2023-03-10T11:06:48.849Z,6.65
2023-03-10T11:09:18.264Z,4.38
2023-03-10T11:11:57.283Z,4.75
2023-03-10T11:14:39.904Z,3.38
2023-03-10T11:17:14.159Z,4.82
2023-03-10T11:19:57.249Z,3.63
2023-03-10T11:22:35.165Z,3.45
2023-03-10T11:25:08.682Z,7.00
2023-03-10T11:27:49.681Z,3.45
2023-03-10T11:30:26.141Z,4.80
2023-03-10T11:33:07.550Z,4.30
2023-03-10T11:35:43.784Z,2.70
2023-03-10T11:38:28.525Z,3.05
2023-03-10T11:41:00.333Z,3.22
2023-03-10T11:43:35.075Z,3.63
2023-03-10T11:46:11.467Z,3.15
2023-03-10T11:49:03.124Z,3.15
2023-03-10T11:51:36.312Z,2.60
2023-03-10T11:54:11.567Z,4.63
2023-03-10T11:56:40.717Z,5.43
2023-03-10T11:59:14.096Z,3.08
2023-03-10T12:01:47.363Z,4.47
2023-03-10T12:04:22.753Z,3.70
2023-03-10T12:06:56.028Z,3.28
2023-03-10T12:09:33.391Z,3.55
2023-03-10T12:12:04.673Z,4.13
2023-03-10T12:14:33.372Z,4.07
2023-03-10T12:17:05.357Z,3.25
2023-03-10T12:19:33.270Z,4.38
2023-03-10T12:22:24.213Z,3.22
2023-03-10T12:24:53.000Z,4.18
2023-03-10T12:27:21.178Z,4.13
2023-03-10T12:29:49.424Z,2.92
2023-03-10T12:32:47.215Z,4.22
2023-03-10T12:38:31.636Z,4.38
2023-03-10T12:41:01.095Z,2.30
2023-03-10T12:44:02.657Z,4.38
2023-03-10T12:46:48.526Z,2.80
2023-03-10T12:49:30.171Z,5.55
2023-03-10T12:52:19.078Z,4.28
2023-03-10T12:54:55.925Z,4.10
2023-03-10T12:57:32.009Z,4.05
2023-03-10T13:00:06.572Z,3.97
2023-03-10T13:02:40.232Z,3.83
2023-03-10T13:05:22.378Z,3.63
2023-03-10T13:07:54.026Z,2.42
2023-03-10T13:10:24.490Z,2.55
2023-03-10T13:12:56.140Z,2.63
2023-03-10T13:15:26.187Z,2.15
2023-03-10T13:17:55.552Z,2.72
2023-03-10T13:20:25.486Z,2.33
2023-03-10T13:22:55.270Z,2.35
2023-03-10T13:25:23.708Z,1.30
2023-03-10T13:27:52.694Z,4.53
2023-03-10T13:30:22.362Z,3.20
2023-03-10T13:32:54.410Z,1.75
2023-03-10T13:35:26.686Z,4.40
2023-03-10T13:38:11.266Z,2.83
2023-03-10T13:40:42.062Z,4.30
2023-03-10T13:43:28.637Z,2.65
2023-03-10T13:45:57.122Z,3.22
2023-03-10T13:48:27.220Z,3.35
2023-03-10T13:51:20.940Z,2.70
2023-03-10T13:53:52.575Z,1.85
2023-03-10T13:56:24.328Z,2.38
2023-03-10T13:58:54.462Z,2.53
2023-03-10T14:01:25.235Z,3.45
2023-03-10T14:03:55.657Z,2.75
2023-03-10T14:06:26.497Z,6.35
2023-03-10T14:08:55.020Z,2.10
2023-03-10T14:11:25.790Z,3.63
2023-03-10T14:13:53.749Z,2.90
2023-03-10T14:16:21.707Z,2.85
2023-03-10T14:18:49.616Z,4.00
2023-03-10T14:21:30.765Z,3.38
2023-03-10T14:24:03.986Z,4.30
2023-03-10T14:26:32.574Z,2.90
2023-03-10T14:29:03.900Z,2.33
2023-03-10T14:31:31.831Z,3.13
2023-03-10T14:33:59.763Z,4.72
2023-03-10T14:36:29.634Z,2.75
2023-03-10T14:38:57.573Z,4.25
2023-03-10T14:41:26.489Z,2.35
2023-03-10T14:43:54.563Z,1.55
2023-03-10T14:46:22.836Z,3.80
2023-03-10T14:48:51.062Z,3.50
2023-03-10T14:51:34.652Z,3.30
2023-03-10T14:54:05.029Z,2.97
2023-03-10T14:56:34.276Z,1.90
2023-03-10T14:59:02.865Z,2.85
2023-03-10T15:01:32.990Z,3.45
2023-03-10T15:04:01.036Z,3.40
2023-03-10T15:06:28.964Z,2.70
2023-03-10T15:08:56.893Z,4.85
2023-03-10T15:11:36.837Z,5.32
2023-03-10T15:14:07.328Z,5.18
2023-03-10T15:16:35.252Z,4.90
2023-03-10T15:19:03.311Z,6.35
2023-03-10T15:21:31.214Z,3.97
2023-03-10T15:23:59.375Z,5.10
2023-03-10T15:26:28.712Z,4.93
2023-03-10T15:28:56.657Z,4.82
2023-03-10T15:31:24.750Z,4.68
2023-03-10T15:33:52.796Z,5.78
2023-03-10T15:36:23.774Z,3.55
2023-03-10T15:38:53.270Z,4.32
2023-03-10T15:41:21.286Z,3.10
2023-03-10T15:43:51.001Z,6.43
2023-03-10T15:46:19.058Z,4.53
2023-03-10T15:48:48.250Z,5.30
2023-03-10T15:51:18.046Z,5.90
2023-03-10T15:53:46.343Z,5.35
2023-03-10T15:56:15.388Z,8.20
2023-03-10T15:58:43.528Z,3.47
2023-03-10T16:01:16.329Z,5.93
2023-03-10T16:03:44.629Z,6.93
2023-03-10T16:06:13.843Z,5.30
2023-03-10T16:08:41.770Z,5.95
2023-03-10T16:11:17.582Z,7.85
2023-03-10T16:13:49.248Z,6.15
2023-03-10T16:16:21.579Z,5.93
2023-03-10T16:18:51.140Z,7.55
2023-03-10T16:21:21.577Z,5.10
2023-03-10T16:23:49.791Z,9.13
2023-03-10T16:26:19.890Z,7.65
2023-03-10T16:28:51.941Z,5.95
2023-03-10T16:31:23.296Z,5.05
2023-03-10T16:33:52.104Z,8.63
2023-03-10T16:36:21.567Z,5.95
2023-03-10T16:38:50.469Z,6.95
2023-03-10T16:41:18.723Z,6.40
2023-03-10T16:43:47.429Z,8.50
2023-03-10T16:46:17.302Z,8.75
2023-03-10T16:48:48.800Z,7.00
2023-03-10T16:51:24.364Z,8.13
2023-03-10T16:53:52.998Z,7.60
2023-03-10T16:56:21.190Z,5.57
2023-03-10T16:58:49.145Z,9.20
2023-03-10T17:01:17.127Z,9.63
2023-03-10T17:03:46.398Z,8.65
2023-03-10T17:06:17.231Z,9.43
2023-03-10T17:08:45.200Z,9.18
2023-03-10T17:11:20.434Z,8.38
2023-03-10T17:13:51.571Z,9.60
2023-03-10T17:16:23.375Z,10.52
2023-03-10T17:18:53.808Z,5.13
2023-03-10T17:21:23.588Z,8.85
2023-03-10T17:23:51.579Z,7.57
2023-03-10T17:26:20.576Z,6.82
2023-03-10T17:28:50.887Z,7.63
2023-03-10T17:31:23.519Z,8.43
2023-03-10T17:33:53.240Z,9.57
2023-03-10T17:36:21.356Z,10.32
2023-03-10T17:38:49.282Z,9.70
2023-03-10T17:41:17.417Z,8.93
2023-03-10T17:43:45.416Z,9.30
2023-03-10T17:46:15.257Z,10.02
2023-03-10T17:48:43.339Z,10.65
2023-03-10T17:51:15.837Z,11.77
2023-03-10T17:53:44.092Z,11.77
2023-03-10T17:56:12.721Z,7.57
2023-03-10T17:58:41.124Z,17.52
2023-03-10T18:01:10.235Z,11.15
2023-03-10T18:03:38.548Z,10.35
2023-03-10T18:06:20.577Z,12.13
2023-03-10T18:08:48.701Z,11.35
2023-03-10T18:27:12.532Z,17.55
2023-03-10T18:29:40.528Z,13.45
2023-03-10T18:32:08.626Z,13.98
2023-03-10T18:34:36.627Z,12.77
2023-03-10T18:37:04.562Z,11.30
2023-03-10T18:39:32.577Z,13.40
2023-03-10T18:42:00.470Z,9.38
2023-03-10T18:44:29.845Z,13.63
2023-03-10T18:46:57.763Z,9.88
2023-03-10T18:49:25.715Z,12.27
2023-03-10T18:51:53.629Z,10.00
2023-03-10T18:54:21.560Z,11.10
2023-03-10T18:56:54.648Z,10.85
2023-03-10T18:59:22.579Z,10.13
2023-03-10T19:01:52.267Z,12.13
2023-03-10T19:04:20.462Z,11.45
2023-03-10T19:06:48.419Z,14.75
2023-03-10T19:09:18.981Z,13.30
2023-03-10T19:11:48.039Z,9.35
2023-03-10T19:14:16.030Z,12.63
2023-03-10T19:16:45.837Z,11.77
2023-03-10T19:19:15.085Z,10.35
2023-03-10T19:21:43.724Z,12.48
2023-03-10T19:24:11.918Z,10.02
2023-03-10T19:26:39.807Z,13.27
2023-03-10T19:29:07.728Z,10.15
2023-03-10T19:31:35.661Z,11.93
2023-03-10T19:34:03.578Z,8.13
2023-03-10T19:36:32.908Z,10.10
2023-03-10T19:39:01.117Z,8.57
2023-03-10T19:41:29.198Z,7.80
2023-03-10T19:43:57.129Z,7.97
2023-03-10T19:46:25.176Z,6.78
2023-03-10T19:48:53.252Z,8.35
2023-03-10T19:51:23.448Z,4.95
2023-03-10T19:53:53.253Z,9.95
2023-03-10T19:56:22.719Z,5.65
2023-03-10T19:58:52.527Z,6.70
2023-03-10T20:01:24.397Z,7.13
2023-03-10T20:03:53.703Z,6.32
2023-03-10T20:06:22.307Z,6.03
2023-03-10T20:08:51.525Z,7.03
2023-03-10T20:11:20.936Z,8.80
2023-03-10T20:13:48.937Z,9.50
2023-03-10T20:16:18.461Z,6.05
2023-03-10T20:18:46.831Z,7.60
2023-03-10T20:21:15.003Z,9.02
2023-03-10T20:23:47.420Z,11.02
2023-03-10T20:26:16.543Z,9.10
2023-03-10T20:28:46.163Z,5.47
2023-03-10T20:31:17.645Z,8.90
2023-03-10T20:33:45.896Z,7.70
2023-03-10T20:36:15.922Z,9.13
2023-03-10T20:38:45.029Z,7.35
2023-03-10T20:41:17.524Z,7.10
2023-03-10T20:43:46.996Z,7.97
2023-03-10T20:46:17.534Z,9.00
2023-03-10T20:48:45.991Z,8.85
2023-03-10T20:51:15.101Z,11.27
2023-03-10T20:53:43.353Z,10.13
2023-03-10T20:56:14.197Z,9.90
2023-03-10T20:58:42.199Z,11.65
2023-03-10T21:01:17.081Z,10.20
2023-03-10T21:03:45.159Z,9.93
2023-03-10T21:06:13.138Z,6.50
2023-03-10T21:08:41.041Z,12.80
2023-03-10T21:13:36.919Z,11.85
2023-03-10T21:16:05.363Z,8.57
2023-03-10T21:18:34.869Z,9.93
2023-03-10T21:21:06.972Z,8.32
2023-03-10T21:23:42.140Z,7.95
2023-03-10T21:26:11.958Z,9.10
2023-03-10T21:28:40.651Z,7.75
2023-03-10T21:31:08.727Z,9.57
2023-03-10T21:33:38.279Z,10.00
2023-03-10T21:36:06.981Z,7.38
2023-03-10T21:38:36.475Z,10.13
2023-03-10T21:41:06.147Z,13.43
2023-03-10T21:43:34.144Z,10.63
2023-03-10T21:46:02.415Z,9.63
2023-03-10T21:48:30.493Z,8.90
2023-03-10T21:50:59.836Z,11.60
2023-03-10T21:53:27.804Z,11.70
2023-03-10T21:55:55.995Z,10.95
2023-03-10T21:58:24.914Z,14.02
2023-03-10T22:00:55.985Z,14.90
2023-03-10T22:03:24.083Z,11.00
2023-03-10T22:05:52.131Z,9.38
2023-03-10T22:08:21.948Z,13.45
2023-03-10T22:10:50.006Z,12.07
2023-03-10T22:13:17.954Z,14.27
2023-03-10T22:15:46.008Z,12.27
2023-03-10T22:18:14.038Z,12.18
2023-03-10T22:20:42.154Z,13.52
2023-03-10T22:23:10.511Z,13.68
2023-03-10T22:25:40.300Z,12.70
2023-03-10T22:28:08.187Z,10.15
2023-03-10T22:30:36.780Z,8.55
2023-03-10T22:33:06.839Z,13.05
2023-03-10T22:35:35.011Z,12.20
2023-03-10T22:38:03.094Z,13.95
2023-03-10T22:40:31.004Z,11.85
2023-03-10T22:43:00.672Z,12.77
2023-03-10T22:45:30.966Z,10.40
2023-03-10T22:48:01.197Z,9.07
2023-03-10T22:50:32.498Z,9.15
2023-03-10T22:53:00.808Z,11.15
2023-03-10T22:55:34.868Z,16.73
2023-03-10T22:58:05.744Z,11.77
2023-03-10T23:00:34.402Z,10.60
2023-03-10T23:03:02.542Z,12.75
2023-03-10T23:05:30.477Z,7.82
2023-03-10T23:07:58.688Z,10.43
2023-03-10T23:10:28.217Z,10.50
2023-03-10T23:12:57.060Z,16.33
2023-03-10T23:15:29.889Z,11.45
2023-03-10T23:17:58.315Z,8.95
2023-03-10T23:20:28.992Z,11.50
2023-03-10T23:22:58.627Z,11.10
2023-03-10T23:25:29.488Z,10.85
2023-03-10T23:27:58.055Z,13.50
2023-03-10T23:30:27.677Z,13.35
2023-03-10T23:32:57.374Z,17.63
2023-03-10T23:35:27.451Z,19.48
2023-03-10T23:37:55.777Z,17.20
2023-03-10T23:40:27.032Z,18.38
2023-03-10T23:42:55.260Z,14.88
2023-03-10T23:45:24.624Z,16.08
2023-03-10T23:47:55.480Z,18.55
2023-03-10T23:50:26.120Z,19.67
2023-03-10T23:52:54.533Z,18.63
2023-03-10T23:55:24.593Z,21.15
2023-03-10T23:57:52.562Z,15.77
